createdAt,value
2022-11-15T00:00:53.947Z,13.63
2022-11-15T00:03:24.100Z,14.20
2022-11-15T00:05:51.320Z,13.13
2022-11-15T00:08:18.288Z,15.07
2022-11-15T00:10:55.535Z,12.93
2022-11-15T00:13:22.139Z,14.00
2022-11-15T00:15:48.739Z,13.93
2022-11-15T00:18:15.913Z,12.57
2022-11-15T00:20:42.890Z,12.17
2022-11-15T00:23:10.202Z,14.43
2022-11-15T00:25:36.883Z,13.93
2022-11-15T00:28:04.235Z,14.53
2022-11-15T00:30:31.087Z,14.87
2022-11-15T00:32:57.762Z,16.77
2022-11-15T00:35:24.596Z,15.40
2022-11-15T00:37:53.669Z,13.70
2022-11-15T00:40:20.265Z,14.90
2022-11-15T00:42:46.873Z,13.93
2022-11-15T00:45:13.467Z,14.23
2022-11-15T00:47:40.059Z,15.87
2022-11-15T00:50:06.975Z,14.43
2022-11-15T00:52:33.596Z,15.37
2022-11-15T00:55:00.320Z,16.97
2022-11-15T00:57:26.904Z,16.73
2022-11-15T00:59:53.700Z,16.43
2022-11-15T01:02:20.436Z,14.83
2022-11-15T01:04:47.039Z,16.13
2022-11-15T01:07:14.173Z,15.13
2022-11-15T01:09:40.926Z,16.80
2022-11-15T01:12:07.682Z,16.50
2022-11-15T01:14:34.316Z,15.37
2022-11-15T01:17:00.940Z,16.73
2022-11-15T01:19:27.593Z,16.03
2022-11-15T01:21:54.241Z,15.67
2022-11-15T01:24:20.817Z,16.37
2022-11-15T01:26:47.441Z,16.00
2022-11-15T01:29:14.034Z,14.67
2022-11-15T01:31:40.675Z,14.20
2022-11-15T01:34:07.345Z,14.47
2022-11-15T01:36:33.984Z,13.27
2022-11-15T01:39:00.764Z,14.77
2022-11-15T01:41:34.130Z,15.73
2022-11-15T01:44:31.625Z,14.53
2022-11-15T01:47:02.484Z,12.37
2022-11-15T01:49:34.016Z,13.77
2022-11-15T01:52:04.326Z,12.50
2022-11-15T01:54:31.996Z,13.40
2022-11-15T01:57:08.202Z,15.27
2022-11-15T01:59:35.037Z,12.50
2022-11-15T02:02:02.049Z,13.03
2022-11-15T02:04:40.592Z,12.17
2022-11-15T02:07:10.969Z,10.70
2022-11-15T02:09:38.675Z,12.57
2022-11-15T02:12:07.407Z,12.57
2022-11-15T02:14:34.670Z,13.03
2022-11-15T02:17:10.403Z,11.53
2022-11-15T02:19:55.696Z,12.80
2022-11-15T02:22:46.911Z,13.20
2022-11-15T02:25:19.236Z,13.10
2022-11-15T02:27:48.574Z,10.67
2022-11-15T02:30:28.319Z,11.37
2022-11-15T02:33:32.942Z,11.70
2022-11-15T02:35:59.791Z,11.60
2022-11-15T02:38:47.823Z,9.57
2022-11-15T02:41:18.157Z,11.83
2022-11-15T02:44:00.223Z,11.03
2022-11-15T02:46:55.630Z,11.83
2022-11-15T02:49:24.146Z,11.40
2022-11-15T02:51:53.389Z,14.20
2022-11-15T02:54:27.189Z,13.60
2022-11-15T02:56:57.015Z,11.93
2022-11-15T02:59:40.716Z,13.87
2022-11-15T03:02:28.937Z,13.27
2022-11-15T03:05:06.099Z,13.03
2022-11-15T03:08:10.678Z,13.27
2022-11-15T03:10:51.727Z,13.20
2022-11-15T03:13:32.278Z,13.77
2022-11-15T03:16:03.877Z,12.60
2022-11-15T03:18:36.886Z,13.07
2022-11-15T03:21:07.843Z,14.27
2022-11-15T03:23:37.012Z,15.73
2022-11-15T03:26:08.169Z,15.53
2022-11-15T03:28:39.986Z,17.30
2022-11-15T03:31:27.685Z,19.50
2022-11-15T03:33:58.319Z,16.57
2022-11-15T03:36:26.161Z,15.60
2022-11-15T03:38:57.676Z,13.93
2022-11-15T03:41:36.285Z,16.80
2022-11-15T03:44:13.217Z,15.07
2022-11-15T03:46:49.366Z,15.83
2022-11-15T03:49:23.544Z,16.23
2022-11-15T03:51:50.142Z,15.10
2022-11-15T03:54:16.867Z,15.37
2022-11-15T03:56:43.424Z,14.07
2022-11-15T03:59:11.094Z,17.60
2022-11-15T04:01:37.789Z,16.47
2022-11-15T04:04:04.535Z,15.67
2022-11-15T04:06:31.123Z,17.53
2022-11-15T04:08:57.729Z,13.23
2022-11-15T04:11:24.366Z,16.77
2022-11-15T04:13:50.989Z,16.37
2022-11-15T04:16:17.640Z,18.23
2022-11-15T04:18:44.308Z,16.60
2022-11-15T04:21:29.651Z,13.67
2022-11-15T04:24:14.877Z,14.63
2022-11-15T04:26:41.537Z,13.90
2022-11-15T04:29:40.733Z,13.67
2022-11-15T04:32:08.100Z,13.17
2022-11-15T04:34:35.370Z,12.07
2022-11-15T04:37:14.106Z,13.77
2022-11-15T04:39:41.727Z,11.23
2022-11-15T04:42:11.721Z,10.77
2022-11-15T04:44:38.520Z,13.50
2022-11-15T04:47:05.454Z,12.57
2022-11-15T04:49:32.087Z,13.90
2022-11-15T04:51:58.787Z,12.43
2022-11-15T04:54:25.458Z,14.27
2022-11-15T04:56:52.074Z,14.33
2022-11-15T04:59:18.790Z,14.23
2022-11-15T05:01:45.534Z,15.13
2022-11-15T05:04:22.601Z,14.73
2022-11-15T05:06:51.533Z,13.97
2022-11-15T05:09:25.598Z,15.87
2022-11-15T05:11:58.464Z,11.33
2022-11-15T05:14:25.642Z,13.00
2022-11-15T05:16:52.288Z,13.87
2022-11-15T05:19:18.847Z,14.50
2022-11-15T05:21:45.404Z,15.47
2022-11-15T05:24:12.334Z,14.33
2022-11-15T05:26:38.953Z,15.17
2022-11-15T05:29:05.588Z,14.53
2022-11-15T05:31:34.404Z,14.50
2022-11-15T05:34:06.778Z,15.17
2022-11-15T05:36:47.194Z,17.13
2022-11-15T05:39:13.898Z,15.87
2022-11-15T05:41:53.917Z,15.40
2022-11-15T05:44:23.613Z,17.60
2022-11-15T05:46:54.564Z,16.20
2022-11-15T05:49:24.831Z,16.67
2022-11-15T05:51:53.083Z,17.73
2022-11-15T05:54:22.571Z,17.10
2022-11-15T05:56:50.069Z,20.83
2022-11-15T05:59:17.865Z,20.97
2022-11-15T06:01:44.584Z,15.13
2022-11-15T06:04:11.301Z,16.93
2022-11-15T06:06:37.907Z,17.30
2022-11-15T06:09:04.533Z,18.47
2022-11-15T06:11:31.115Z,16.50
2022-11-15T06:13:57.668Z,15.97
2022-11-15T06:16:24.315Z,14.20
2022-11-15T06:18:50.911Z,14.97
2022-11-15T06:21:17.481Z,18.07
2022-11-15T06:23:44.086Z,18.60
2022-11-15T06:26:10.675Z,16.47
2022-11-15T06:28:37.347Z,13.07
2022-11-15T06:31:09.742Z,13.13
2022-11-15T06:33:36.511Z,14.87
2022-11-15T06:36:11.969Z,15.47
2022-11-15T06:38:41.263Z,13.37
2022-11-15T06:41:10.416Z,14.23
2022-11-15T06:43:37.607Z,13.97
2022-11-15T06:46:05.587Z,12.80
2022-11-15T06:48:33.821Z,13.57
2022-11-15T06:51:02.151Z,13.53
2022-11-15T06:53:30.861Z,13.43
2022-11-15T06:56:06.087Z,14.07
2022-11-15T06:58:32.794Z,16.50
2022-11-15T07:01:02.764Z,16.13
2022-11-15T07:03:29.735Z,14.67
2022-11-15T07:06:02.701Z,13.47
2022-11-15T07:08:33.691Z,14.57
2022-11-15T07:11:02.815Z,12.67
2022-11-15T07:13:34.330Z,15.80
2022-11-15T07:16:06.899Z,16.47
2022-11-15T07:18:38.363Z,14.57
2022-11-15T07:21:06.778Z,15.50
2022-11-15T07:23:34.167Z,17.30
2022-11-15T07:26:02.719Z,17.73
2022-11-15T07:28:29.410Z,16.33
2022-11-15T07:30:56.227Z,17.23
2022-11-15T07:33:23.023Z,17.87
2022-11-15T07:35:49.584Z,20.13
2022-11-15T07:38:20.562Z,19.60
2022-11-15T07:40:47.836Z,20.03
2022-11-15T07:43:14.641Z,19.77
2022-11-15T07:45:46.013Z,19.17
2022-11-15T07:48:13.174Z,19.27
2022-11-15T07:50:43.402Z,20.27
2022-11-15T07:53:11.574Z,20.90
2022-11-15T07:55:38.634Z,19.07
2022-11-15T07:58:10.877Z,20.40
2022-11-15T08:00:38.476Z,18.53
2022-11-15T08:03:09.318Z,19.30
2022-11-15T08:05:37.145Z,19.20
2022-11-15T08:08:04.574Z,18.13
2022-11-15T08:10:32.603Z,17.20
2022-11-15T08:13:04.581Z,18.87
2022-11-15T08:15:31.867Z,17.87
2022-11-15T08:18:00.233Z,14.83
2022-11-15T08:20:30.748Z,15.63
2022-11-15T08:23:02.292Z,19.27
2022-11-15T08:25:30.411Z,17.90
2022-11-15T08:27:59.437Z,17.83
2022-11-15T08:30:26.451Z,17.47
2022-11-15T08:32:54.353Z,17.60
2022-11-15T08:35:26.299Z,19.93
2022-11-15T08:37:55.812Z,20.73
2022-11-15T08:40:23.791Z,18.07
2022-11-15T08:42:50.448Z,18.97
2022-11-15T08:45:17.244Z,18.67
2022-11-15T08:47:43.964Z,23.03
2022-11-15T08:50:10.936Z,20.10
2022-11-15T08:52:37.535Z,22.03
2022-11-15T08:55:04.460Z,22.90
2022-11-15T08:57:34.195Z,22.33
2022-11-15T09:00:00.797Z,23.63
2022-11-15T09:02:27.443Z,25.10
2022-11-15T09:04:53.998Z,23.93
2022-11-15T09:07:20.685Z,23.27
2022-11-15T09:09:47.330Z,26.43
2022-11-15T09:12:14.084Z,26.77
2022-11-15T09:14:40.659Z,25.73
2022-11-15T09:17:10.752Z,27.70
2022-11-15T09:19:38.071Z,29.40
2022-11-15T09:22:07.719Z,29.90
2022-11-15T09:24:34.671Z,27.77
2022-11-15T09:27:01.439Z,27.43
2022-11-15T09:29:28.082Z,29.23
2022-11-15T09:31:54.697Z,33.07
2022-11-15T09:34:22.059Z,33.30
2022-11-15T09:36:48.631Z,30.27
2022-11-15T09:39:15.229Z,32.27
2022-11-15T09:41:53.863Z,32.97
2022-11-15T09:44:57.256Z,32.33
2022-11-15T09:47:29.953Z,31.07
2022-11-15T09:49:59.943Z,34.43
2022-11-15T09:52:26.643Z,32.13
2022-11-15T09:54:55.571Z,31.43
2022-11-15T09:57:49.479Z,31.07
2022-11-15T10:00:47.107Z,32.90
2022-11-15T10:03:28.560Z,30.80
2022-11-15T10:05:59.145Z,33.53
2022-11-15T10:09:10.732Z,34.60
2022-11-15T10:11:39.476Z,33.77
2022-11-15T10:14:19.845Z,34.37
2022-11-15T10:17:04.802Z,34.07
2022-11-15T10:19:31.287Z,34.40
2022-11-15T10:22:00.566Z,36.10
2022-11-15T10:24:34.105Z,34.37
2022-11-15T10:27:02.976Z,35.67
2022-11-15T10:29:29.555Z,34.60
2022-11-15T10:31:56.138Z,33.90
2022-11-15T10:34:24.809Z,35.90
2022-11-15T10:36:59.941Z,33.90
2022-11-15T10:39:26.866Z,34.00
2022-11-15T10:41:53.631Z,35.90
2022-11-15T10:44:20.280Z,35.10
2022-11-15T10:46:56.197Z,34.87
2022-11-15T10:49:31.045Z,34.83
2022-11-15T10:52:16.885Z,34.03
2022-11-15T10:54:57.152Z,33.30
2022-11-15T10:57:28.342Z,31.93
2022-11-15T11:00:06.555Z,34.20
2022-11-15T11:02:37.836Z,33.10
2022-11-15T11:05:41.070Z,31.17
2022-11-15T11:08:12.049Z,31.27
2022-11-15T11:10:51.742Z,34.07
2022-11-15T11:13:25.688Z,33.83
2022-11-15T11:16:05.386Z,33.93
2022-11-15T11:18:55.030Z,34.20
2022-11-15T11:21:42.308Z,33.23
2022-11-15T11:24:17.205Z,33.17
2022-11-15T11:27:06.280Z,33.77
2022-11-15T11:29:51.683Z,34.87
2022-11-15T11:32:33.072Z,31.17
2022-11-15T11:35:25.009Z,35.17
2022-11-15T11:37:55.105Z,35.63
2022-11-15T11:40:36.247Z,32.87
2022-11-15T11:43:45.935Z,33.87
2022-11-15T11:46:27.904Z,35.47
2022-11-15T11:49:04.596Z,34.47
2022-11-15T11:51:39.816Z,32.27
2022-11-15T11:54:18.894Z,35.13
2022-11-15T11:56:46.722Z,34.43
2022-11-15T11:59:37.356Z,34.70
2022-11-15T12:02:16.346Z,31.20
2022-11-15T12:04:50.935Z,33.30
2022-11-15T12:07:26.616Z,32.47
2022-11-15T12:10:17.151Z,29.97
2022-11-15T12:21:06.763Z,29.20
2022-11-15T12:23:43.575Z,29.70
2022-11-15T12:26:26.187Z,30.60
2022-11-15T12:29:07.838Z,29.90
2022-11-15T12:31:35.504Z,31.73
2022-11-15T12:34:14.475Z,32.87
2022-11-15T12:36:45.254Z,31.23
2022-11-15T12:39:13.417Z,31.93
2022-11-15T12:41:56.527Z,32.63
2022-11-15T12:44:32.342Z,32.63
2022-11-15T12:46:58.916Z,29.67
2022-11-15T12:49:28.301Z,31.93
2022-11-15T12:51:57.930Z,34.37
2022-11-15T12:54:24.504Z,32.97
2022-11-15T12:57:09.230Z,32.13
2022-11-15T13:00:13.654Z,32.17
2022-11-15T13:02:46.464Z,32.00
2022-11-15T13:05:16.494Z,32.13
2022-11-15T13:07:43.099Z,31.93
2022-11-15T13:10:28.541Z,31.93
2022-11-15T13:13:03.553Z,33.17
2022-11-15T13:16:00.992Z,30.07
2022-11-15T13:18:29.938Z,31.93
2022-11-15T13:21:02.181Z,32.10
2022-11-15T13:23:29.640Z,31.37
2022-11-15T13:26:11.861Z,32.63
2022-11-15T13:28:51.907Z,32.70
2022-11-15T13:31:38.725Z,33.53
2022-11-15T13:34:50.535Z,30.60
2022-11-15T13:37:20.766Z,34.10
2022-11-15T13:39:48.854Z,29.30
2022-11-15T13:42:20.633Z,31.13
2022-11-15T13:44:58.530Z,31.80
2022-11-15T13:47:28.400Z,31.37
2022-11-15T13:49:58.162Z,32.20
2022-11-15T13:52:32.051Z,30.77
2022-11-15T13:55:00.753Z,32.13
2022-11-15T13:57:35.294Z,31.63
2022-11-15T14:00:23.159Z,30.97
2022-11-15T14:02:49.848Z,31.13
2022-11-15T14:05:24.403Z,32.63
2022-11-15T14:08:20.537Z,31.83
2022-11-15T14:10:47.249Z,31.63
2022-11-15T14:13:31.956Z,32.57
2022-11-15T14:16:22.407Z,32.27
2022-11-15T14:18:53.580Z,30.87
2022-11-15T14:21:21.328Z,30.47
2022-11-15T14:23:49.983Z,31.80
2022-11-15T14:26:34.660Z,32.73
2022-11-15T14:29:30.076Z,34.40
2022-11-15T14:32:16.424Z,34.97
2022-11-15T14:34:43.640Z,38.37
2022-11-15T14:37:21.552Z,36.73
2022-11-15T14:39:48.276Z,39.53
2022-11-15T14:42:14.874Z,41.00
2022-11-15T14:44:45.779Z,41.33
2022-11-15T14:47:13.060Z,40.60
2022-11-15T14:49:39.726Z,39.10
2022-11-15T14:52:35.387Z,35.57
2022-11-15T14:55:03.866Z,31.07
2022-11-15T14:57:31.714Z,31.53
2022-11-15T14:59:58.400Z,29.57
2022-11-15T15:02:27.812Z,29.43
2022-11-15T15:04:54.981Z,30.93
2022-11-15T15:07:22.191Z,31.83
2022-11-15T15:09:48.906Z,32.30
2022-11-15T15:12:21.709Z,29.27
2022-11-15T15:14:50.320Z,30.30
2022-11-15T15:17:18.240Z,31.77
2022-11-15T15:19:44.916Z,32.20
2022-11-15T15:22:16.978Z,31.10
2022-11-15T15:24:44.556Z,29.97
2022-11-15T15:27:11.753Z,31.93
2022-11-15T15:29:38.607Z,29.47
2022-11-15T15:32:06.447Z,29.40
2022-11-15T15:34:33.542Z,30.73
2022-11-15T15:37:30.745Z,30.50
2022-11-15T15:39:57.824Z,30.53
2022-11-15T15:42:24.703Z,30.77
2022-11-15T15:44:51.988Z,29.73
2022-11-15T15:47:23.506Z,33.77
2022-11-15T15:49:51.352Z,30.80
2022-11-15T15:52:18.246Z,31.93
2022-11-15T15:54:45.114Z,31.30
2022-11-15T15:57:15.332Z,31.10
2022-11-15T15:59:42.206Z,30.27
2022-11-15T16:02:15.386Z,29.00
2022-11-15T16:04:41.994Z,41.37
2022-11-15T16:07:22.198Z,30.83
2022-11-15T16:10:00.956Z,31.20
2022-11-15T16:12:34.061Z,32.70
2022-11-15T16:15:01.677Z,32.50
2022-11-15T16:17:34.466Z,35.17
2022-11-15T16:20:01.429Z,33.50
2022-11-15T16:22:30.218Z,33.73
2022-11-15T16:24:57.389Z,34.00
2022-11-15T16:27:24.675Z,38.40
2022-11-15T16:29:51.425Z,40.17
2022-11-15T16:32:18.212Z,36.33
2022-11-15T16:34:48.800Z,38.90
2022-11-15T16:37:25.628Z,40.63
2022-11-15T16:39:53.978Z,39.13
2022-11-15T16:42:23.818Z,40.03
2022-11-15T16:44:50.436Z,42.23
2022-11-15T16:47:19.714Z,38.20
2022-11-15T16:49:46.907Z,39.30
2022-11-15T16:52:15.501Z,39.37
2022-11-15T16:54:45.634Z,37.90
2022-11-15T16:57:12.268Z,37.67
2022-11-15T16:59:39.025Z,39.70
2022-11-15T17:02:12.447Z,38.00
2022-11-15T17:04:39.331Z,38.13
2022-11-15T17:07:06.931Z,38.33
2022-11-15T17:09:34.348Z,39.70
2022-11-15T17:12:00.934Z,40.00
2022-11-15T17:14:27.608Z,38.03
2022-11-15T17:16:57.246Z,36.73
2022-11-15T17:19:24.001Z,39.63
2022-11-15T17:21:50.748Z,39.73
2022-11-15T17:24:17.839Z,38.30
2022-11-15T17:26:44.506Z,39.07
2022-11-15T17:29:11.352Z,42.13
2022-11-15T17:31:38.869Z,37.73
2022-11-15T17:34:06.848Z,36.90
2022-11-15T17:36:34.439Z,39.80
2022-11-15T17:39:01.284Z,39.13
2022-11-15T17:41:29.140Z,36.50
2022-11-15T17:44:00.142Z,37.00
2022-11-15T17:46:28.151Z,37.73
2022-11-15T17:48:56.098Z,39.03
2022-11-15T17:51:24.216Z,39.10
2022-11-15T17:53:51.797Z,37.97
2022-11-15T17:56:23.553Z,40.13
2022-11-15T17:58:52.329Z,38.87
2022-11-15T18:01:29.628Z,39.97
2022-11-15T18:03:57.457Z,40.57
2022-11-15T18:06:25.315Z,44.77
2022-11-15T18:08:53.734Z,44.77
2022-11-15T18:11:23.940Z,43.70
2022-11-15T18:13:53.795Z,41.70
2022-11-15T18:16:24.758Z,38.70
2022-11-15T18:18:51.552Z,37.47
2022-11-15T18:21:21.754Z,37.80
2022-11-15T18:23:52.652Z,38.73
2022-11-15T18:26:23.042Z,36.47
2022-11-15T18:28:53.955Z,38.13
2022-11-15T18:31:26.384Z,37.90
2022-11-15T18:33:54.188Z,36.53
2022-11-15T18:36:24.644Z,37.67
2022-11-15T18:38:58.923Z,34.63
2022-11-15T18:41:28.514Z,33.30
2022-11-15T18:43:56.812Z,35.80
2022-11-15T18:46:25.546Z,36.57
2022-11-15T18:48:56.516Z,38.00
2022-11-15T18:51:26.112Z,32.90
2022-11-15T18:53:54.630Z,34.53
2022-11-15T18:56:23.278Z,34.87
2022-11-15T18:58:55.578Z,35.77
2022-11-15T19:01:30.696Z,37.80
2022-11-15T19:04:06.786Z,33.77
2022-11-15T19:06:36.761Z,33.90
2022-11-15T19:09:06.488Z,36.53
2022-11-15T19:11:37.059Z,34.30
2022-11-15T19:14:08.070Z,36.93
2022-11-15T19:16:37.790Z,32.83
2022-11-15T19:19:11.710Z,34.83
2022-11-15T19:21:38.439Z,33.40
2022-11-15T19:24:05.591Z,34.63
2022-11-15T19:26:32.567Z,33.40
2022-11-15T19:29:01.561Z,32.27
2022-11-15T19:31:29.935Z,30.87
2022-11-15T19:34:04.619Z,30.97
2022-11-15T19:36:36.708Z,28.27
2022-11-15T19:39:08.464Z,29.43
2022-11-15T19:41:37.956Z,28.13
2022-11-15T19:44:05.808Z,28.50
2022-11-15T19:46:32.552Z,25.67
2022-11-15T19:48:59.251Z,25.37
2022-11-15T19:51:27.734Z,24.70
2022-11-15T19:53:56.546Z,24.87
2022-11-15T19:56:24.217Z,25.93
2022-11-15T19:58:54.167Z,25.97
2022-11-15T20:01:22.203Z,29.23
2022-11-15T20:03:50.240Z,27.90
2022-11-15T20:06:22.646Z,26.43
2022-11-15T20:08:50.023Z,26.43
2022-11-15T20:11:17.953Z,24.27
2022-11-15T20:13:45.494Z,25.23
2022-11-15T20:16:21.350Z,24.60
2022-11-15T20:18:49.569Z,22.07
2022-11-15T20:21:16.925Z,24.53
2022-11-15T20:23:43.939Z,26.53
2022-11-15T20:26:11.809Z,22.90
2022-11-15T20:28:39.666Z,26.47
2022-11-15T20:31:07.472Z,25.33
2022-11-15T20:33:34.879Z,24.13
2022-11-15T20:36:11.035Z,25.73
2022-11-15T20:38:38.247Z,24.77
2022-11-15T20:41:05.535Z,25.57
2022-11-15T20:43:32.844Z,24.10
2022-11-15T20:45:59.493Z,24.70
2022-11-15T20:48:26.222Z,25.03
2022-11-15T20:51:07.242Z,24.53
2022-11-15T20:53:34.945Z,25.27
2022-11-15T20:56:11.330Z,23.87
2022-11-15T20:58:38.283Z,26.07
2022-11-15T21:01:07.009Z,27.43
2022-11-15T21:03:34.039Z,26.93
2022-11-15T21:06:01.043Z,26.70
2022-11-15T21:08:27.687Z,23.90
2022-11-15T21:11:13.337Z,24.67
2022-11-15T21:13:40.081Z,23.20
2022-11-15T21:16:07.208Z,25.23
2022-11-15T21:18:34.176Z,23.90
2022-11-15T21:21:07.461Z,22.07
2022-11-15T21:23:34.239Z,18.23
2022-11-15T21:26:00.896Z,20.43
2022-11-15T21:28:27.590Z,21.50
2022-11-15T21:30:56.517Z,21.00
2022-11-15T21:33:24.018Z,19.27
2022-11-15T21:35:51.762Z,21.20
2022-11-15T21:38:18.766Z,20.40
2022-11-15T21:40:45.597Z,18.93
2022-11-15T21:43:12.240Z,21.17
2022-11-15T21:45:38.863Z,19.77
2022-11-15T21:48:06.104Z,18.60
2022-11-15T21:50:32.746Z,18.43
2022-11-15T21:52:59.356Z,19.30
2022-11-15T21:55:25.967Z,18.63
2022-11-15T21:57:52.549Z,18.83
2022-11-15T22:00:38.056Z,20.90
2022-11-15T22:03:04.632Z,21.03
2022-11-15T22:05:31.235Z,21.30
2022-11-15T22:07:57.813Z,21.90
2022-11-15T22:10:24.417Z,21.60
2022-11-15T22:12:51.006Z,19.07
2022-11-15T22:15:17.619Z,20.07
2022-11-15T22:17:59.253Z,19.43
2022-11-15T22:20:44.057Z,20.43
2022-11-15T22:23:11.699Z,18.23
2022-11-15T22:25:38.449Z,19.47
2022-11-15T22:28:05.288Z,18.87
2022-11-15T22:30:31.918Z,19.70
2022-11-15T22:32:58.587Z,20.37
2022-11-15T22:35:25.201Z,19.10
2022-11-15T22:37:52.888Z,19.50
2022-11-15T22:40:19.652Z,19.57
2022-11-15T22:42:46.285Z,21.30
2022-11-15T22:45:12.995Z,20.37
2022-11-15T22:47:39.641Z,23.33
2022-11-15T22:50:06.733Z,23.27
2022-11-15T22:52:33.426Z,22.73
2022-11-15T22:55:00.072Z,21.77
2022-11-15T22:57:26.739Z,22.57
2022-11-15T22:59:53.357Z,22.50
2022-11-15T23:02:19.950Z,22.63
2022-11-15T23:04:46.713Z,20.80
2022-11-15T23:07:13.888Z,20.50
2022-11-15T23:09:40.555Z,21.53
2022-11-15T23:12:27.322Z,22.23
2022-11-15T23:14:53.982Z,20.53
2022-11-15T23:17:20.615Z,18.23
2022-11-15T23:19:47.500Z,19.63
2022-11-15T23:22:32.636Z,19.13
2022-11-15T23:24:59.695Z,20.03
2022-11-15T23:27:26.390Z,21.43
2022-11-15T23:30:11.532Z,21.43
2022-11-15T23:32:56.450Z,24.97
2022-11-15T23:35:23.096Z,26.13
2022-11-15T23:37:49.750Z,24.00
2022-11-15T23:40:16.471Z,22.27
2022-11-15T23:42:43.065Z,22.00
2022-11-15T23:45:09.973Z,20.73
2022-11-15T23:47:36.671Z,21.87
2022-11-15T23:50:04.099Z,23.20
2022-11-15T23:52:30.735Z,21.03
2022-11-15T23:54:57.412Z,21.23
2022-11-15T23:57:24.039Z,21.13
2022-11-15T23:59:50.675Z,20.40
